Česky Dansk Deutsch English Español Suomi Français Magyar Italiano Nederlands norsk Polski Português svenska Türkçe

 

Het Weer

Aqaba Airport (Jordan)

21:00, 27 juli 2016 (GMT)

NWNNE
WE
SWSSE
Home            
Aqaba Airport Eilat Taba Ovda Ma'An Beer-Sheva Sharm El Sheikhintl El Arish Tabuk Queen Alia Airport Jerusalem Airport Ben-Gurion International Airport Tel Aviv / Sde-Dov Airport Amman Airport El Tor Guriat Hurguada Port Said Mafraq Irbid H-5'Safawi Sde-Haifa Haifa Cairo Airport

Om een weerknop op uw website of weblog te plaatsen, copieer onderstaande code en plak die in uw pagina. In het eerste vakje staat HTML-code, in het tweede vakje UBB-code.


Add to Google

Details

Wind speed:4 bf, 12 kn, 6.2 m/s, 13.8 miles/h, 22.2 km/h
Wind direction:NNW, 340°
Visibility:Greater than 10000 m, 10 km, 32800 ft, 6.2 miles
Clouds:CAVOC
Temperature:32°C, 90°F
Gefühlte Temperatur:33°C, 91°F
Dew-point:17°C, 63°F
Atmospheric pressure:1004 hPa, 753.1 mmHg, 29.65 inHg, 0.991 atm
Relative humidity:40.8 %
METAR:OJAQ 272100Z 34012KT CAVOK 32/17 Q1004

Snelkoppelingen

Actuele weersinformatie van de hele wereld. Voeg locaties toe met het plus (+) symbool. Deze snelkoppelingen kunnen worden toegevoegd aan Google.

Lid van de Technetium groep

website free tracking
StatCounter NetStat W3C Validator

17-12-2017 04:48:00
astro.technetium.be money.technetium.be phote.technetium.be tafeltennistafel.technetium.be www.ligfiets.net